sensor_id;sensor_type;location;lat;lon;timestamp;pressure;altitude;pressure_sealevel;temperature;humidity
14117;BME280;7137;51.436;6.544;2023-05-02T00:01:51;101475.75;;;11.00;100.00
14117;BME280;7137;51.436;6.544;2023-05-02T00:04:53;101474.28;;;10.87;100.00
14117;BME280;7137;51.436;6.544;2023-05-02T00:07:55;101472.47;;;10.90;100.00
14117;BME280;7137;51.436;6.544;2023-05-02T00:10:56;101488.19;;;10.89;100.00
14117;BME280;7137;51.436;6.544;2023-05-02T00:13:58;101483.06;;;10.84;100.00
14117;BME280;7137;51.436;6.544;2023-05-02T00:17:01;101487.34;;;10.87;100.00
14117;BME280;7137;51.436;6.544;2023-05-02T00:20:03;101478.16;;;10.66;100.00
14117;BME280;7137;51.436;6.544;2023-05-02T00:23:04;101480.44;;;10.83;100.00
14117;BME280;7137;51.436;6.544;2023-05-02T00:26:07;101482.38;;;10.75;100.00
14117;BME280;7137;51.436;6.544;2023-05-02T00:29:09;101484.75;;;10.87;100.00
14117;BME280;7137;51.436;6.544;2023-05-02T00:32:12;101489.06;;;10.88;100.00
14117;BME280;7137;51.436;6.544;2023-05-02T00:35:14;101490.75;;;10.90;100.00
14117;BME280;7137;51.436;6.544;2023-05-02T00:38:15;101491.59;;;10.92;100.00
14117;BME280;7137;51.436;6.544;2023-05-02T00:41:17;101494.97;;;10.96;100.00
14117;BME280;7137;51.436;6.544;2023-05-02T00:44:19;101487.09;;;10.99;100.00
14117;BME280;7137;51.436;6.544;2023-05-02T00:47:23;101494.84;;;11.04;100.00
14117;BME280;7137;51.436;6.544;2023-05-02T00:50:25;101507.66;;;11.16;100.00
14117;BME280;7137;51.436;6.544;2023-05-02T00:53:27;101503.81;;;11.32;100.00
14117;BME280;7137;51.436;6.544;2023-05-02T00:56:29;101507.44;;;11.26;100.00
14117;BME280;7137;51.436;6.544;2023-05-02T00:59:30;101509.31;;;11.20;100.00
14117;BME280;7137;51.436;6.544;2023-05-02T01:02:39;101512.78;;;11.20;100.00
14117;BME280;7137;51.436;6.544;2023-05-02T01:05:55;101514.53;;;11.20;100.00
14117;BME280;7137;51.436;6.544;2023-05-02T01:09:06;101510.06;;;11.26;100.00
14117;BME280;7137;51.436;6.544;2023-05-02T01:12:19;101504.91;;;11.22;100.00
14117;BME280;7137;51.436;6.544;2023-05-02T01:15:25;101503.91;;;11.29;100.00
14117;BME280;7137;51.436;6.544;2023-05-02T01:18:33;101512.34;;;11.42;100.00
14117;BME280;7137;51.436;6.544;2023-05-02T01:21:36;101516.28;;;11.59;99.80
14117;BME280;7137;51.436;6.544;2023-05-02T01:24:44;101517.06;;;11.63;99.07
14117;BME280;7137;51.436;6.544;2023-05-02T01:28:02;101523.09;;;11.67;98.70
14117;BME280;7137;51.436;6.544;2023-05-02T01:31:07;101522.06;;;11.74;98.68
14117;BME280;7137;51.436;6.544;2023-05-02T01:34:09;101515.69;;;11.87;98.65
14117;BME280;7137;51.436;6.544;2023-05-02T01:37:12;101521.91;;;11.83;97.98
14117;BME280;7137;51.436;6.544;2023-05-02T01:40:17;101541.28;;;11.73;98.80
14117;BME280;7137;51.436;6.544;2023-05-02T01:43:19;101531.84;;;11.66;99.10
14117;BME280;7137;51.436;6.544;2023-05-02T01:46:25;101535.22;;;11.71;99.73
14117;BME280;7137;51.436;6.544;2023-05-02T01:49:28;101543.13;;;11.68;99.35
14117;BME280;7137;51.436;6.544;2023-05-02T01:52:31;101540.97;;;11.48;100.00
14117;BME280;7137;51.436;6.544;2023-05-02T01:55:34;101541.44;;;11.65;100.00
14117;BME280;7137;51.436;6.544;2023-05-02T01:58:37;101552.06;;;11.59;100.00
14117;BME280;7137;51.436;6.544;2023-05-02T02:01:42;101548.44;;;11.65;100.00
14117;BME280;7137;51.436;6.544;2023-05-02T02:04:46;101557.06;;;11.68;99.68
14117;BME280;7137;51.436;6.544;2023-05-02T02:07:49;101553.56;;;11.71;99.70
14117;BME280;7137;51.436;6.544;2023-05-02T02:10:55;101564.81;;;11.74;99.62
14117;BME280;7137;51.436;6.544;2023-05-02T02:14:04;101562.41;;;12.04;97.93
14117;BME280;7137;51.436;6.544;2023-05-02T02:17:13;101567.94;;;11.92;98.20
14117;BME280;7137;51.436;6.544;2023-05-02T02:20:17;101574.06;;;11.91;99.07
14117;BME280;7137;51.436;6.544;2023-05-02T02:23:22;101574.22;;;11.84;97.59
14117;BME280;7137;51.436;6.544;2023-05-02T02:26:26;101575.34;;;11.71;98.40
14117;BME280;7137;51.436;6.544;2023-05-02T02:29:28;101579.53;;;11.78;98.57
14117;BME280;7137;51.436;6.544;2023-05-02T02:32:31;101578.66;;;11.79;97.23
14117;BME280;7137;51.436;6.544;2023-05-02T02:35:36;101582.13;;;11.81;97.11
14117;BME280;7137;51.436;6.544;2023-05-02T02:38:44;101583.91;;;11.79;97.95
14117;BME280;7137;51.436;6.544;2023-05-02T02:41:54;101588.09;;;11.88;96.79
14117;BME280;7137;51.436;6.544;2023-05-02T02:45:07;101580.34;;;11.82;96.38
14117;BME280;7137;51.436;6.544;2023-05-02T02:48:18;101589.41;;;11.66;95.50
14117;BME280;7137;51.436;6.544;2023-05-02T02:51:26;101585.91;;;11.67;95.52
14117;BME280;7137;51.436;6.544;2023-05-02T02:54:34;101586.09;;;11.59;94.78
14117;BME280;7137;51.436;6.544;2023-05-02T02:57:39;101593.00;;;11.62;95.17
14117;BME280;7137;51.436;6.544;2023-05-02T03:00:45;101585.03;;;11.66;94.75
14117;BME280;7137;51.436;6.544;2023-05-02T03:03:50;101585.94;;;11.65;95.52
14117;BME280;7137;51.436;6.544;2023-05-02T03:06:52;101590.09;;;11.75;95.00
14117;BME280;7137;51.436;6.544;2023-05-02T03:09:54;101593.53;;;11.79;94.11
14117;BME280;7137;51.436;6.544;2023-05-02T03:12:56;101605.72;;;11.80;93.87
14117;BME280;7137;51.436;6.544;2023-05-02T03:16:17;101602.22;;;11.79;95.74
14117;BME280;7137;51.436;6.544;2023-05-02T03:19:28;101604.00;;;11.77;94.61
14117;BME280;7137;51.436;6.544;2023-05-02T03:22:30;101608.97;;;11.91;95.14
14117;BME280;7137;51.436;6.544;2023-05-02T03:25:32;101609.78;;;11.93;95.29
14117;BME280;7137;51.436;6.544;2023-05-02T03:28:33;101615.78;;;11.98;93.98
14117;BME280;7137;51.436;6.544;2023-05-02T03:31:35;101613.75;;;12.09;94.97
14117;BME280;7137;51.436;6.544;2023-05-02T03:34:38;101610.13;;;12.16;93.04
14117;BME280;7137;51.436;6.544;2023-05-02T03:37:41;101611.97;;;12.13;93.28
14117;BME280;7137;51.436;6.544;2023-05-02T03:40:42;101615.03;;;12.30;94.40
14117;BME280;7137;51.436;6.544;2023-05-02T03:43:44;101617.56;;;12.33;94.09
14117;BME280;7137;51.436;6.544;2023-05-02T03:46:46;101624.44;;;12.37;93.59
14117;BME280;7137;51.436;6.544;2023-05-02T03:49:49;101631.50;;;12.35;93.30
14117;BME280;7137;51.436;6.544;2023-05-02T03:52:52;101633.72;;;12.15;94.25
14117;BME280;7137;51.436;6.544;2023-05-02T03:55:53;101630.66;;;11.98;94.02
14117;BME280;7137;51.436;6.544;2023-05-02T03:58:55;101639.41;;;11.97;95.14
14117;BME280;7137;51.436;6.544;2023-05-02T04:01:57;101641.88;;;12.03;95.35
14117;BME280;7137;51.436;6.544;2023-05-02T04:05:00;101649.03;;;11.95;94.76
14117;BME280;7137;51.436;6.544;2023-05-02T04:08:01;101657.72;;;11.95;94.71
14117;BME280;7137;51.436;6.544;2023-05-02T04:11:03;101662.22;;;11.90;94.33
14117;BME280;7137;51.436;6.544;2023-05-02T04:14:05;101664.03;;;11.86;94.70
14117;BME280;7137;51.436;6.544;2023-05-02T04:17:06;101669.47;;;11.76;96.81
14117;BME280;7137;51.436;6.544;2023-05-02T04:20:10;101664.53;;;11.62;99.45
14117;BME280;7137;51.436;6.544;2023-05-02T04:23:12;101666.72;;;11.39;100.00
14117;BME280;7137;51.436;6.544;2023-05-02T04:26:14;101674.59;;;11.37;100.00
14117;BME280;7137;51.436;6.544;2023-05-02T04:29:16;101667.16;;;11.17;100.00
14117;BME280;7137;51.436;6.544;2023-05-02T04:32:17;101675.56;;;11.33;100.00
14117;BME280;7137;51.436;6.544;2023-05-02T04:35:21;101674.47;;;11.45;100.00
14117;BME280;7137;51.436;6.544;2023-05-02T04:38:22;101680.56;;;11.45;100.00
14117;BME280;7137;51.436;6.544;2023-05-02T04:41:24;101696.50;;;11.33;100.00
14117;BME280;7137;51.436;6.544;2023-05-02T04:44:26;101695.63;;;11.33;100.00
14117;BME280;7137;51.436;6.544;2023-05-02T04:47:27;101702.72;;;11.27;100.00
14117;BME280;7137;51.436;6.544;2023-05-02T04:50:30;101712.38;;;11.22;100.00
14117;BME280;7137;51.436;6.544;2023-05-02T04:53:32;101716.16;;;11.06;100.00
14117;BME280;7137;51.436;6.544;2023-05-02T04:56:33;101721.59;;;10.94;100.00
14117;BME280;7137;51.436;6.544;2023-05-02T04:59:36;101730.47;;;10.84;100.00
14117;BME280;7137;51.436;6.544;2023-05-02T05:02:37;101731.44;;;10.77;100.00
14117;BME280;7137;51.436;6.544;2023-05-02T05:05:40;101734.94;;;10.77;100.00
14117;BME280;7137;51.436;6.544;2023-05-02T05:08:42;101737.78;;;10.62;100.00
14117;BME280;7137;51.436;6.544;2023-05-02T05:11:44;101738.53;;;10.70;100.00
14117;BME280;7137;51.436;6.544;2023-05-02T05:14:46;101740.28;;;10.71;100.00
14117;BME280;7137;51.436;6.544;2023-05-02T05:17:49;101736.56;;;10.83;100.00
14117;BME280;7137;51.436;6.544;2023-05-02T05:20:52;101745.06;;;10.98;100.00
14117;BME280;7137;51.436;6.544;2023-05-02T05:23:53;101752.63;;;11.15;100.00
14117;BME280;7137;51.436;6.544;2023-05-02T05:26:55;101758.72;;;11.14;100.00
14117;BME280;7137;51.436;6.544;2023-05-02T05:29:56;101757.44;;;11.37;100.00
14117;BME280;7137;51.436;6.544;2023-05-02T05:32:58;101772.09;;;11.47;100.00
14117;BME280;7137;51.436;6.544;2023-05-02T05:36:05;101776.59;;;11.39;100.00
14117;BME280;7137;51.436;6.544;2023-05-02T05:39:06;101786.34;;;11.30;100.00
14117;BME280;7137;51.436;6.544;2023-05-02T05:42:08;101784.88;;;11.14;100.00
14117;BME280;7137;51.436;6.544;2023-05-02T05:45:10;101787.63;;;11.05;100.00
14117;BME280;7137;51.436;6.544;2023-05-02T05:48:12;101794.59;;;11.06;100.00
14117;BME280;7137;51.436;6.544;2023-05-02T05:51:15;101799.81;;;11.06;100.00
14117;BME280;7137;51.436;6.544;2023-05-02T05:54:16;101798.84;;;11.13;100.00
14117;BME280;7137;51.436;6.544;2023-05-02T05:57:18;101796.19;;;11.15;100.00
14117;BME280;7137;51.436;6.544;2023-05-02T06:00:20;101804.75;;;11.24;100.00
14117;BME280;7137;51.436;6.544;2023-05-02T06:03:22;101809.09;;;11.25;99.94
14117;BME280;7137;51.436;6.544;2023-05-02T06:06:25;101815.78;;;11.43;99.53
14117;BME280;7137;51.436;6.544;2023-05-02T06:09:26;101827.81;;;11.52;98.10
14117;BME280;7137;51.436;6.544;2023-05-02T06:12:28;101825.56;;;11.32;98.52
14117;BME280;7137;51.436;6.544;2023-05-02T06:15:32;101831.59;;;11.36;99.13
14117;BME280;7137;51.436;6.544;2023-05-02T06:18:33;101830.69;;;11.37;98.01
14117;BME280;7137;51.436;6.544;2023-05-02T06:21:36;101829.72;;;11.44;97.19
14117;BME280;7137;51.436;6.544;2023-05-02T06:24:38;101833.19;;;11.94;95.86
14117;BME280;7137;51.436;6.544;2023-05-02T06:27:39;101841.38;;;12.22;93.65
14117;BME280;7137;51.436;6.544;2023-05-02T06:30:41;101845.53;;;12.33;92.77
14117;BME280;7137;51.436;6.544;2023-05-02T06:33:42;101855.16;;;12.31;92.63
14117;BME280;7137;51.436;6.544;2023-05-02T06:36:45;101855.78;;;12.01;92.77
14117;BME280;7137;51.436;6.544;2023-05-02T06:39:47;101859.72;;;11.74;94.98
14117;BME280;7137;51.436;6.544;2023-05-02T06:42:48;101867.16;;;12.00;93.36
14117;BME280;7137;51.436;6.544;2023-05-02T06:45:51;101868.06;;;11.96;92.62
14117;BME280;7137;51.436;6.544;2023-05-02T06:48:53;101874.72;;;11.64;92.63
14117;BME280;7137;51.436;6.544;2023-05-02T06:51:56;101883.84;;;11.42;93.61
14117;BME280;7137;51.436;6.544;2023-05-02T06:54:58;101895.53;;;11.18;89.69
14117;BME280;7137;51.436;6.544;2023-05-02T06:57:59;101892.44;;;10.90;87.91
14117;BME280;7137;51.436;6.544;2023-05-02T07:01:01;101898.41;;;10.99;87.78
14117;BME280;7137;51.436;6.544;2023-05-02T07:04:03;101903.66;;;10.98;86.64
14117;BME280;7137;51.436;6.544;2023-05-02T07:07:06;101906.09;;;11.09;86.16
14117;BME280;7137;51.436;6.544;2023-05-02T07:10:09;101915.72;;;11.07;85.14
14117;BME280;7137;51.436;6.544;2023-05-02T07:13:11;101913.78;;;11.21;85.64
14117;BME280;7137;51.436;6.544;2023-05-02T07:16:12;101924.88;;;11.37;84.50
14117;BME280;7137;51.436;6.544;2023-05-02T07:19:14;101930.94;;;11.40;83.81
14117;BME280;7137;51.436;6.544;2023-05-02T07:22:17;101936.16;;;11.42;84.96
14117;BME280;7137;51.436;6.544;2023-05-02T07:25:18;101937.09;;;11.36;84.62
14117;BME280;7137;51.436;6.544;2023-05-02T07:28:20;101937.31;;;11.21;85.31
14117;BME280;7137;51.436;6.544;2023-05-02T07:31:22;101946.66;;;11.40;85.73
14117;BME280;7137;51.436;6.544;2023-05-02T07:34:23;101946.09;;;11.74;84.59
14117;BME280;7137;51.436;6.544;2023-05-02T07:37:31;101956.25;;;11.38;85.42
14117;BME280;7137;51.436;6.544;2023-05-02T07:40:33;101965.81;;;11.39;85.98
14117;BME280;7137;51.436;6.544;2023-05-02T07:43:34;101978.16;;;11.31;85.52
14117;BME280;7137;51.436;6.544;2023-05-02T07:46:36;101980.19;;;11.12;86.65
14117;BME280;7137;51.436;6.544;2023-05-02T07:49:37;101990.16;;;10.80;86.47
14117;BME280;7137;51.436;6.544;2023-05-02T07:52:40;101989.16;;;10.90;87.61
14117;BME280;7137;51.436;6.544;2023-05-02T07:55:42;101983.03;;;10.91;86.02
14117;BME280;7137;51.436;6.544;2023-05-02T07:58:43;101991.66;;;11.00;85.18
14117;BME280;7137;51.436;6.544;2023-05-02T08:01:45;101989.78;;;11.09;82.65
14117;BME280;7137;51.436;6.544;2023-05-02T08:04:46;101998.25;;;11.26;81.03
14117;BME280;7137;51.436;6.544;2023-05-02T08:07:49;101999.41;;;11.68;80.44
14117;BME280;7137;51.436;6.544;2023-05-02T08:10:51;102001.22;;;11.63;77.88
14117;BME280;7137;51.436;6.544;2023-05-02T08:13:53;102009.72;;;11.80;78.12
14117;BME280;7137;51.436;6.544;2023-05-02T08:16:54;102006.53;;;12.15;77.33
14117;BME280;7137;51.436;6.544;2023-05-02T08:19:56;102016.34;;;12.03;74.69
14117;BME280;7137;51.436;6.544;2023-05-02T08:22:59;102021.47;;;11.52;76.44
14117;BME280;7137;51.436;6.544;2023-05-02T08:26:00;102030.63;;;11.82;76.14
14117;BME280;7137;51.436;6.544;2023-05-02T08:29:02;102031.03;;;12.13;76.63
14117;BME280;7137;51.436;6.544;2023-05-02T08:32:04;102034.63;;;12.06;75.39
14117;BME280;7137;51.436;6.544;2023-05-02T08:35:06;102034.53;;;12.13;75.14
14117;BME280;7137;51.436;6.544;2023-05-02T08:38:09;102032.22;;;11.92;78.93
14117;BME280;7137;51.436;6.544;2023-05-02T08:41:11;102045.50;;;11.80;80.29
14117;BME280;7137;51.436;6.544;2023-05-02T08:44:13;102051.50;;;11.88;79.65
14117;BME280;7137;51.436;6.544;2023-05-02T08:47:15;102052.31;;;11.92;77.70
14117;BME280;7137;51.436;6.544;2023-05-02T08:50:17;102057.66;;;11.85;78.56
14117;BME280;7137;51.436;6.544;2023-05-02T08:53:22;102059.31;;;11.91;76.40
14117;BME280;7137;51.436;6.544;2023-05-02T08:56:24;102062.34;;;12.21;74.66
14117;BME280;7137;51.436;6.544;2023-05-02T08:59:26;102079.72;;;12.26;74.94
14117;BME280;7137;51.436;6.544;2023-05-02T09:02:44;102076.50;;;13.06;69.58
14117;BME280;7137;51.436;6.544;2023-05-02T09:05:53;102077.25;;;13.13;69.13
14117;BME280;7137;51.436;6.544;2023-05-02T09:08:59;102083.31;;;13.16;68.79
14117;BME280;7137;51.436;6.544;2023-05-02T09:12:00;102083.44;;;13.92;66.97
14117;BME280;7137;51.436;6.544;2023-05-02T09:15:09;102090.34;;;15.31;61.90
14117;BME280;7137;51.436;6.544;2023-05-02T09:18:18;102091.72;;;15.14;58.82
14117;BME280;7137;51.436;6.544;2023-05-02T09:21:21;102100.53;;;15.43;56.56
14117;BME280;7137;51.436;6.544;2023-05-02T09:24:25;102101.72;;;17.91;51.37
14117;BME280;7137;51.436;6.544;2023-05-02T09:27:27;102100.44;;;18.44;47.40
14117;BME280;7137;51.436;6.544;2023-05-02T09:30:28;102103.19;;;16.00;53.67
14117;BME280;7137;51.436;6.544;2023-05-02T09:33:30;102098.19;;;14.70;59.17
14117;BME280;7137;51.436;6.544;2023-05-02T09:36:38;102116.56;;;13.99;61.64
14117;BME280;7137;51.436;6.544;2023-05-02T09:40:05;102121.59;;;13.28;65.53
14117;BME280;7137;51.436;6.544;2023-05-02T09:43:13;102128.63;;;12.78;64.49
14117;BME280;7137;51.436;6.544;2023-05-02T09:46:15;102129.75;;;12.63;62.83
14117;BME280;7137;51.436;6.544;2023-05-02T09:49:17;102124.22;;;12.78;65.97
14117;BME280;7137;51.436;6.544;2023-05-02T09:52:20;102134.00;;;12.70;66.93
14117;BME280;7137;51.436;6.544;2023-05-02T09:55:23;102143.75;;;12.62;65.87
14117;BME280;7137;51.436;6.544;2023-05-02T09:58:24;102153.88;;;12.84;63.72
14117;BME280;7137;51.436;6.544;2023-05-02T10:01:26;102150.25;;;12.91;62.50
14117;BME280;7137;51.436;6.544;2023-05-02T10:04:30;102154.91;;;13.23;61.92
14117;BME280;7137;51.436;6.544;2023-05-02T10:07:32;102155.53;;;13.35;61.76
14117;BME280;7137;51.436;6.544;2023-05-02T10:10:37;102147.91;;;13.68;61.11
14117;BME280;7137;51.436;6.544;2023-05-02T10:13:40;102158.16;;;13.79;60.84
14117;BME280;7137;51.436;6.544;2023-05-02T10:16:51;102160.25;;;13.63;58.74
14117;BME280;7137;51.436;6.544;2023-05-02T10:19:59;102157.88;;;13.51;58.96
14117;BME280;7137;51.436;6.544;2023-05-02T10:23:02;102158.34;;;13.71;57.55
14117;BME280;7137;51.436;6.544;2023-05-02T10:26:05;102166.97;;;14.16;54.80
14117;BME280;7137;51.436;6.544;2023-05-02T10:29:07;102166.41;;;14.02;55.32
14117;BME280;7137;51.436;6.544;2023-05-02T10:32:09;102164.28;;;14.57;54.88
14117;BME280;7137;51.436;6.544;2023-05-02T10:35:11;102169.59;;;14.55;56.23
14117;BME280;7137;51.436;6.544;2023-05-02T10:38:15;102160.72;;;14.20;55.98
14117;BME280;7137;51.436;6.544;2023-05-02T10:41:21;102164.09;;;13.88;55.56
14117;BME280;7137;51.436;6.544;2023-05-02T10:44:34;102165.44;;;14.45;53.41
14117;BME280;7137;51.436;6.544;2023-05-02T10:47:36;102165.94;;;15.27;52.29
14117;BME280;7137;51.436;6.544;2023-05-02T10:50:45;102164.50;;;15.47;50.49
14117;BME280;7137;51.436;6.544;2023-05-02T10:53:46;102163.72;;;15.12;50.92
14117;BME280;7137;51.436;6.544;2023-05-02T10:57:06;102165.94;;;14.61;55.42
14117;BME280;7137;51.436;6.544;2023-05-02T11:04:06;102184.69;;;13.22;56.46
14117;BME280;7137;51.436;6.544;2023-05-02T11:07:17;102181.84;;;13.32;57.02
14117;BME280;7137;51.436;6.544;2023-05-02T11:10:25;102183.03;;;14.03;53.54
14117;BME280;7137;51.436;6.544;2023-05-02T11:13:49;102177.19;;;13.90;53.61
14117;BME280;7137;51.436;6.544;2023-05-02T11:17:07;102176.50;;;14.22;51.37
14117;BME280;7137;51.436;6.544;2023-05-02T11:20:27;102182.28;;;13.98;51.71
14117;BME280;7137;51.436;6.544;2023-05-02T11:23:28;102166.66;;;14.67;51.97
14117;BME280;7137;51.436;6.544;2023-05-02T11:26:30;102171.97;;;14.66;50.00
14117;BME280;7137;51.436;6.544;2023-05-02T11:29:52;102168.16;;;14.40;49.68
14117;BME280;7137;51.436;6.544;2023-05-02T11:33:15;102161.31;;;16.52;50.52
14117;BME280;7137;51.436;6.544;2023-05-02T11:36:26;102171.13;;;15.30;48.24
14117;BME280;7137;51.436;6.544;2023-05-02T11:39:29;102168.34;;;13.94;48.28
14117;BME280;7137;51.436;6.544;2023-05-02T11:42:30;102171.28;;;13.80;50.71
14117;BME280;7137;51.436;6.544;2023-05-02T11:45:34;102166.16;;;14.13;48.69
14117;BME280;7137;51.436;6.544;2023-05-02T11:48:36;102177.63;;;14.10;48.74
14117;BME280;7137;51.436;6.544;2023-05-02T11:51:38;102174.72;;;14.21;47.48
14117;BME280;7137;51.436;6.544;2023-05-02T11:54:39;102182.97;;;14.81;48.31
14117;BME280;7137;51.436;6.544;2023-05-02T11:57:41;102187.66;;;14.69;47.46
14117;BME280;7137;51.436;6.544;2023-05-02T12:00:45;102182.88;;;15.50;45.74
14117;BME280;7137;51.436;6.544;2023-05-02T12:03:47;102194.91;;;15.91;45.10
14117;BME280;7137;51.436;6.544;2023-05-02T12:06:55;102192.97;;;15.66;45.51
14117;BME280;7137;51.436;6.544;2023-05-02T12:09:56;102190.88;;;15.78;45.25
14117;BME280;7137;51.436;6.544;2023-05-02T12:13:03;102197.72;;;15.52;44.79
14117;BME280;7137;51.436;6.544;2023-05-02T12:16:06;102205.28;;;15.95;44.78
14117;BME280;7137;51.436;6.544;2023-05-02T12:19:08;102201.56;;;15.40;44.20
14117;BME280;7137;51.436;6.544;2023-05-02T12:22:10;102206.38;;;15.25;46.24
14117;BME280;7137;51.436;6.544;2023-05-02T12:25:12;102209.22;;;15.17;44.74
14117;BME280;7137;51.436;6.544;2023-05-02T12:28:16;102212.84;;;15.78;44.76
14117;BME280;7137;51.436;6.544;2023-05-02T12:31:19;102211.75;;;15.53;44.28
14117;BME280;7137;51.436;6.544;2023-05-02T12:34:31;102214.19;;;15.28;45.92
14117;BME280;7137;51.436;6.544;2023-05-02T12:37:33;102217.78;;;14.55;47.72
14117;BME280;7137;51.436;6.544;2023-05-02T12:40:34;102220.97;;;14.30;47.82
14117;BME280;7137;51.436;6.544;2023-05-02T12:43:44;102213.69;;;14.42;47.23
14117;BME280;7137;51.436;6.544;2023-05-02T12:47:10;102220.66;;;14.45;47.87
14117;BME280;7137;51.436;6.544;2023-05-02T12:50:12;102217.88;;;14.52;45.15
14117;BME280;7137;51.436;6.544;2023-05-02T12:53:14;102228.28;;;14.17;47.23
14117;BME280;7137;51.436;6.544;2023-05-02T12:56:15;102224.03;;;14.11;47.65
14117;BME280;7137;51.436;6.544;2023-05-02T12:59:27;102225.50;;;13.83;47.30
14117;BME280;7137;51.436;6.544;2023-05-02T13:02:30;102231.88;;;14.13;48.06
14117;BME280;7137;51.436;6.544;2023-05-02T13:05:31;102226.38;;;13.83;48.04
14117;BME280;7137;51.436;6.544;2023-05-02T13:08:34;102227.28;;;14.21;47.80
14117;BME280;7137;51.436;6.544;2023-05-02T13:11:35;102227.69;;;14.43;47.79
14117;BME280;7137;51.436;6.544;2023-05-02T13:14:38;102221.91;;;13.87;46.82
14117;BME280;7137;51.436;6.544;2023-05-02T13:17:41;102221.84;;;13.90;48.38
14117;BME280;7137;51.436;6.544;2023-05-02T13:20:42;102220.50;;;13.71;46.79
14117;BME280;7137;51.436;6.544;2023-05-02T13:23:46;102221.97;;;13.84;47.27
14117;BME280;7137;51.436;6.544;2023-05-02T13:26:49;102222.09;;;13.78;47.56
14117;BME280;7137;51.436;6.544;2023-05-02T13:29:51;102227.91;;;13.49;46.46
14117;BME280;7137;51.436;6.544;2023-05-02T13:32:54;102225.13;;;13.58;48.12
14117;BME280;7137;51.436;6.544;2023-05-02T13:35:57;102223.78;;;13.82;47.25
14117;BME280;7137;51.436;6.544;2023-05-02T13:38:59;102229.34;;;14.07;46.63
14117;BME280;7137;51.436;6.544;2023-05-02T13:42:01;102224.19;;;14.81;45.43
14117;BME280;7137;51.436;6.544;2023-05-02T13:45:04;102225.63;;;14.94;44.29
14117;BME280;7137;51.436;6.544;2023-05-02T13:48:08;102234.25;;;15.66;43.99
14117;BME280;7137;51.436;6.544;2023-05-02T13:51:09;102234.97;;;15.71;43.30
14117;BME280;7137;51.436;6.544;2023-05-02T13:54:11;102235.22;;;15.62;43.53
14117;BME280;7137;51.436;6.544;2023-05-02T13:57:12;102235.38;;;15.23;44.24
14117;BME280;7137;51.436;6.544;2023-05-02T14:00:14;102240.22;;;14.70;46.25
14117;BME280;7137;51.436;6.544;2023-05-02T14:03:18;102231.81;;;14.56;46.04
14117;BME280;7137;51.436;6.544;2023-05-02T14:06:19;102238.00;;;14.13;47.49
14117;BME280;7137;51.436;6.544;2023-05-02T14:09:21;102232.56;;;13.81;47.12
14117;BME280;7137;51.436;6.544;2023-05-02T14:12:22;102231.69;;;13.80;47.06
14117;BME280;7137;51.436;6.544;2023-05-02T14:15:24;102227.84;;;13.96;47.57
14117;BME280;7137;51.436;6.544;2023-05-02T14:18:27;102221.09;;;13.85;47.56
14117;BME280;7137;51.436;6.544;2023-05-02T14:21:29;102214.13;;;13.82;47.71
14117;BME280;7137;51.436;6.544;2023-05-02T14:24:30;102213.31;;;13.79;46.81
14117;BME280;7137;51.436;6.544;2023-05-02T14:27:32;102214.44;;;14.09;46.88
14117;BME280;7137;51.436;6.544;2023-05-02T14:30:33;102217.59;;;14.24;46.94
14117;BME280;7137;51.436;6.544;2023-05-02T14:33:36;102224.66;;;14.21;47.29
14117;BME280;7137;51.436;6.544;2023-05-02T14:36:38;102235.28;;;14.16;46.19
14117;BME280;7137;51.436;6.544;2023-05-02T14:39:39;102219.44;;;14.19;46.11
14117;BME280;7137;51.436;6.544;2023-05-02T14:42:42;102211.28;;;14.70;45.60
14117;BME280;7137;51.436;6.544;2023-05-02T14:45:43;102215.53;;;14.76;45.40
14117;BME280;7137;51.436;6.544;2023-05-02T14:48:46;102206.56;;;14.84;44.36
14117;BME280;7137;51.436;6.544;2023-05-02T14:51:47;102210.19;;;15.13;45.69
14117;BME280;7137;51.436;6.544;2023-05-02T14:54:49;102200.75;;;15.38;43.34
14117;BME280;7137;51.436;6.544;2023-05-02T14:57:50;102212.31;;;14.99;44.20
14117;BME280;7137;51.436;6.544;2023-05-02T15:00:52;102208.22;;;14.87;46.40
14117;BME280;7137;51.436;6.544;2023-05-02T15:03:55;102203.00;;;14.85;44.81
14117;BME280;7137;51.436;6.544;2023-05-02T15:06:57;102217.31;;;15.09;45.77
14117;BME280;7137;51.436;6.544;2023-05-02T15:10:00;102213.88;;;14.72;46.45
14117;BME280;7137;51.436;6.544;2023-05-02T15:13:01;102217.53;;;14.66;45.29
14117;BME280;7137;51.436;6.544;2023-05-02T15:16:04;102205.78;;;14.81;44.22
14117;BME280;7137;51.436;6.544;2023-05-02T15:19:07;102206.31;;;14.94;44.87
14117;BME280;7137;51.436;6.544;2023-05-02T15:22:08;102211.78;;;14.86;45.66
14117;BME280;7137;51.436;6.544;2023-05-02T15:25:10;102209.13;;;14.52;45.63
14117;BME280;7137;51.436;6.544;2023-05-02T15:28:11;102210.81;;;14.14;47.10
14117;BME280;7137;51.436;6.544;2023-05-02T15:31:13;102213.50;;;14.11;47.73
14117;BME280;7137;51.436;6.544;2023-05-02T15:34:15;102217.91;;;14.11;47.87
14117;BME280;7137;51.436;6.544;2023-05-02T15:37:17;102225.53;;;14.23;47.00
14117;BME280;7137;51.436;6.544;2023-05-02T15:40:18;102222.25;;;14.52;46.46
14117;BME280;7137;51.436;6.544;2023-05-02T15:43:20;102220.91;;;14.71;45.92
14117;BME280;7137;51.436;6.544;2023-05-02T15:46:21;102223.72;;;14.25;46.48
14117;BME280;7137;51.436;6.544;2023-05-02T15:49:24;102219.19;;;14.32;46.04
14117;BME280;7137;51.436;6.544;2023-05-02T15:52:30;102222.78;;;14.27;46.45
14117;BME280;7137;51.436;6.544;2023-05-02T15:55:32;102219.88;;;14.40;46.94
14117;BME280;7137;51.436;6.544;2023-05-02T15:58:34;102224.78;;;14.57;46.57
14117;BME280;7137;51.436;6.544;2023-05-02T16:01:36;102225.78;;;14.51;45.80
14117;BME280;7137;51.436;6.544;2023-05-02T16:04:39;102238.91;;;14.52;47.08
14117;BME280;7137;51.436;6.544;2023-05-02T16:07:42;102228.53;;;14.45;46.04
14117;BME280;7137;51.436;6.544;2023-05-02T16:10:43;102229.94;;;14.60;46.97
14117;BME280;7137;51.436;6.544;2023-05-02T16:13:45;102236.16;;;14.57;45.42